หน้าหลัก
METAR-TAF:

METAR-TAF

ท่าอากาศยาน :

Wonderboom Airport

พริทอเรีย, แอฟริกาใต้

ละติจูด: 25-39S, ลองจิจูด: 028-13E, ความสูง: 1248 ม.

การสังเกตสภาพอากาศปัจจุบัน

รายงานได้ทำขึ้นเมื่อ 17 นาทีที่แล้ว ณ เวลา 03:00 UTC
ลม 1 นอตจากใต้
อุณหภูมิ 2°C
ความชื้น 87%
ความกดอากาศ 1027 hPa

METAR: FAWB 130300Z AUTO 17001KT //// // ////// 02/M00 Q1027

เวลา: 05:17 (03:17 UTC)

การพยากรณ์

รายงานได้ทำขึ้นเมื่อ 18 ชั่วโมงและ 17 นาทีที่แล้ว ณ เวลา 09:00 UTC
การพยากรณ์มีผลตั้งแต่วันที่ 12 ณ เวลา 10 UTC จนถึงวันที่ 12 ณ เวลา 18 UTC
ลม 8 นอตจากตะวันตก/ตะวันตกเฉียงเหนือ
ทัศนวิสัย 10 กม. หรือมากกว่า
ไม่มีเมฆต่ำกว่า 1,500 ม. และไม่มีเมฆคิวมูโลนิมบัส

TAF: FAWB 120900Z 1210/1218 30008KT CAVOK TX19/1212Z TN12/1218Z

สังเกตการณ์สภาพอากาศและพยากรณ์อากาศของสนามบินมากกว่า 4000 แห่ง (รายงาน METAR และ TAF).

สถานีที่ดูได้จะแสดงไว้ด้วยจุดสีเหลืองและสีแดงบนแผนที่.

เลื่อนเมาส์ไปเหนือจุดเพื่อดูชื่อสถานี.

แล้วคลิกเพื่อดูสังเกตการณ์และการพยากรณ์สภาพอากาศ.

ในการเปลี่ยนแผนที่: คลิกที่ปุ่มสีเขียวที่มีกากบาทสีดำเพื่อซูมเข้า; ที่ปุ่มสีเขียวที่มีขีดเพื่อซูมออก; หรือที่ลูกศรสีเขียวเพื่อไปยังแผนที่ที่อยู่ติดกัน.


METAR-TAF: